createdAt,value
2022-08-16T00:02:33.325Z,2.35
2022-08-16T00:05:00.942Z,3.03
2022-08-16T00:07:29.642Z,2.60
2022-08-16T00:10:00.607Z,3.00
2022-08-16T00:12:30.129Z,2.47
2022-08-16T00:15:00.086Z,2.70
2022-08-16T00:17:28.167Z,2.75
2022-08-16T00:19:55.722Z,2.63
2022-08-16T00:22:24.629Z,2.75
2022-08-16T00:24:55.897Z,2.58
2022-08-16T00:27:23.166Z,3.22
2022-08-16T00:30:08.937Z,2.90
2022-08-16T00:32:41.811Z,2.83
2022-08-16T00:35:15.444Z,3.03
2022-08-16T00:37:58.553Z,2.92
2022-08-16T00:40:36.803Z,2.78
2022-08-16T00:43:23.794Z,2.53
2022-08-16T00:46:22.286Z,2.50
2022-08-16T00:48:55.172Z,2.38
2022-08-16T00:51:25.544Z,2.50
2022-08-16T00:53:56.409Z,2.58
2022-08-16T00:56:58.208Z,2.53
2022-08-16T00:59:16.414Z,2.58
2022-08-16T01:01:44.594Z,2.40
2022-08-16T01:04:30.192Z,3.17
2022-08-16T01:07:03.802Z,2.75
2022-08-16T01:09:38.668Z,2.42
2022-08-16T01:12:11.224Z,2.80
2022-08-16T01:14:58.153Z,2.72
2022-08-16T01:17:28.043Z,2.45
2022-08-16T01:20:23.684Z,2.58
2022-08-16T01:22:59.749Z,3.22
2022-08-16T01:25:34.430Z,2.72
2022-08-16T01:28:07.869Z,2.67
2022-08-16T01:30:40.030Z,2.78
2022-08-16T01:33:17.809Z,2.65
2022-08-16T01:36:01.062Z,2.88
2022-08-16T01:38:30.727Z,2.28
2022-08-16T01:41:02.551Z,3.28
2022-08-16T01:43:33.796Z,2.40
2022-08-16T01:46:37.581Z,2.67
2022-08-16T01:49:03.862Z,2.80
2022-08-16T01:51:31.648Z,3.03
2022-08-16T01:53:59.841Z,2.92
2022-08-16T01:56:31.353Z,2.95
2022-08-16T01:59:01.218Z,3.13
2022-08-16T02:01:29.145Z,2.65
2022-08-16T02:03:58.723Z,2.53
2022-08-16T02:06:45.914Z,2.55
2022-08-16T02:09:17.751Z,2.95
2022-08-16T02:11:55.426Z,2.53
2022-08-16T02:14:26.476Z,2.65
2022-08-16T02:16:57.935Z,2.40
2022-08-16T02:19:59.381Z,2.60
2022-08-16T02:22:34.735Z,2.45
2022-08-16T02:25:08.216Z,2.20
2022-08-16T02:27:36.670Z,2.47
2022-08-16T02:30:08.028Z,2.60
2022-08-16T02:32:50.260Z,2.47
2022-08-16T02:35:23.097Z,2.80
2022-08-16T02:37:52.521Z,2.75
2022-08-16T02:40:22.585Z,2.53
2022-08-16T02:42:51.131Z,3.30
2022-08-16T02:45:20.550Z,2.70
2022-08-16T02:48:00.145Z,2.50
2022-08-16T02:50:53.872Z,2.60
2022-08-16T02:53:26.456Z,2.22
2022-08-16T02:55:53.653Z,2.63
2022-08-16T02:58:25.042Z,2.50
2022-08-16T03:00:55.733Z,2.70
2022-08-16T03:03:26.260Z,2.30
2022-08-16T03:05:54.293Z,2.60
2022-08-16T03:08:50.830Z,2.30
2022-08-16T03:11:16.721Z,2.22
2022-08-16T03:13:48.064Z,2.65
2022-08-16T03:16:33.056Z,2.17
2022-08-16T03:19:08.321Z,2.67
2022-08-16T03:21:38.054Z,2.50
2022-08-16T03:24:27.591Z,2.47
2022-08-16T03:26:59.357Z,2.30
2022-08-16T03:29:30.049Z,2.65
2022-08-16T03:31:59.408Z,2.38
2022-08-16T03:34:28.327Z,2.85
2022-08-16T03:36:55.136Z,2.55
2022-08-16T03:39:22.408Z,2.53
2022-08-16T03:41:59.302Z,2.33
2022-08-16T03:44:44.681Z,2.03
2022-08-16T03:47:19.001Z,2.35
2022-08-16T03:49:51.857Z,2.20
2022-08-16T03:52:23.265Z,2.08
2022-08-16T03:54:58.182Z,3.10
2022-08-16T03:57:32.120Z,2.70
2022-08-16T04:00:20.776Z,2.13
2022-08-16T04:03:08.800Z,2.40
2022-08-16T04:05:46.703Z,2.15
2022-08-16T04:08:22.738Z,2.30
2022-08-16T04:10:58.464Z,2.30
2022-08-16T04:13:58.884Z,2.35
2022-08-16T04:16:26.794Z,2.70
2022-08-16T04:19:02.411Z,2.33
2022-08-16T04:21:34.594Z,2.33
2022-08-16T04:24:04.046Z,2.50
2022-08-16T04:26:35.826Z,2.45
2022-08-16T04:29:17.200Z,2.75
2022-08-16T04:31:56.185Z,2.55
2022-08-16T04:34:30.581Z,2.63
2022-08-16T04:37:01.909Z,2.38
2022-08-16T04:39:37.127Z,2.65
2022-08-16T04:42:17.455Z,2.10
2022-08-16T04:44:57.508Z,2.65
2022-08-16T04:47:35.454Z,2.42
2022-08-16T04:50:15.372Z,2.50
2022-08-16T04:52:59.276Z,2.40
2022-08-16T04:55:37.580Z,2.20
2022-08-16T04:58:44.032Z,2.30
2022-08-16T05:00:53.758Z,2.75
2022-08-16T05:03:23.689Z,2.38
2022-08-16T05:05:59.229Z,2.05
2022-08-16T05:08:32.892Z,2.28
2022-08-16T05:11:11.452Z,2.03
2022-08-16T05:13:43.194Z,2.45
2022-08-16T05:16:23.068Z,2.20
2022-08-16T05:19:04.972Z,2.70
2022-08-16T05:21:42.765Z,2.47
2022-08-16T05:24:11.242Z,2.42
2022-08-16T05:26:40.845Z,3.00
2022-08-16T05:29:10.815Z,2.60
2022-08-16T05:31:48.413Z,2.65
2022-08-16T05:34:22.276Z,2.97
2022-08-16T05:36:52.995Z,2.67
2022-08-16T05:39:22.488Z,2.88
2022-08-16T05:41:51.732Z,2.22
2022-08-16T05:44:23.485Z,2.97
2022-08-16T05:46:55.049Z,3.00
2022-08-16T05:49:26.160Z,2.90
2022-08-16T05:52:13.820Z,2.92
2022-08-16T05:55:00.970Z,3.03
2022-08-16T05:57:34.429Z,3.38
2022-08-16T06:00:05.680Z,2.60
2022-08-16T06:02:39.212Z,2.80
2022-08-16T06:05:15.838Z,2.95
2022-08-16T06:07:43.602Z,3.33
2022-08-16T06:10:32.987Z,3.15
2022-08-16T06:13:03.216Z,2.80
2022-08-16T06:15:30.548Z,3.08
2022-08-16T06:17:59.304Z,2.72
2022-08-16T06:20:35.196Z,2.58
2022-08-16T06:23:17.268Z,2.83
2022-08-16T06:26:07.501Z,2.50
2022-08-16T06:28:37.909Z,3.00
2022-08-16T06:31:12.805Z,2.85
2022-08-16T06:33:44.554Z,2.22
2022-08-16T06:36:14.844Z,2.72
2022-08-16T06:38:55.893Z,2.85
2022-08-16T06:41:59.106Z,2.40
2022-08-16T06:44:51.552Z,2.63
2022-08-16T06:47:53.450Z,2.83
2022-08-16T06:50:28.621Z,2.85
2022-08-16T06:53:00.697Z,2.40
2022-08-16T06:55:34.348Z,2.53
2022-08-16T06:58:08.536Z,2.97
2022-08-16T07:00:51.405Z,2.10
2022-08-16T07:03:27.838Z,2.45
2022-08-16T07:05:56.979Z,2.25
2022-08-16T07:08:32.660Z,2.30
2022-08-16T07:11:00.055Z,2.70
2022-08-16T07:13:58.591Z,2.40
2022-08-16T07:16:20.585Z,2.75
2022-08-16T07:18:58.165Z,2.50
2022-08-16T07:21:28.288Z,2.28
2022-08-16T07:24:29.844Z,2.08
2022-08-16T07:27:08.345Z,2.22
2022-08-16T07:29:37.815Z,2.58
2022-08-16T07:32:09.188Z,2.45
2022-08-16T07:34:37.692Z,2.30
2022-08-16T07:37:15.538Z,2.65
2022-08-16T07:40:07.523Z,2.38
2022-08-16T07:42:40.886Z,2.45
2022-08-16T07:45:10.289Z,2.72
2022-08-16T07:47:41.959Z,2.50
2022-08-16T07:50:56.187Z,2.40
2022-08-16T07:52:57.507Z,2.80
2022-08-16T07:55:26.981Z,2.50
2022-08-16T07:58:00.605Z,2.65
2022-08-16T08:00:29.070Z,2.28
2022-08-16T08:03:00.325Z,2.67
2022-08-16T08:05:35.968Z,2.40
2022-08-16T08:08:11.552Z,2.38
2022-08-16T08:10:39.093Z,2.40
2022-08-16T08:13:05.700Z,2.22
2022-08-16T08:15:37.031Z,2.50
2022-08-16T08:18:29.910Z,2.80
2022-08-16T08:20:59.005Z,2.08
2022-08-16T08:25:55.801Z,2.53
2022-08-16T08:28:27.504Z,2.13
2022-08-16T08:31:06.563Z,2.75
2022-08-16T08:33:38.377Z,2.50
2022-08-16T08:36:11.307Z,2.53
2022-08-16T08:38:51.169Z,2.63
2022-08-16T08:41:20.918Z,2.25
2022-08-16T08:43:56.055Z,2.75
2022-08-16T08:46:25.293Z,2.20
2022-08-16T08:48:59.667Z,2.55
2022-08-16T08:51:35.714Z,2.60
2022-08-16T08:54:09.080Z,2.15
2022-08-16T08:56:45.519Z,2.30
2022-08-16T08:59:26.338Z,2.22
2022-08-16T09:01:56.543Z,2.00
2022-08-16T09:04:28.560Z,2.42
2022-08-16T09:06:58.549Z,2.60
2022-08-16T09:09:33.457Z,2.63
2022-08-16T09:12:06.089Z,2.10
2022-08-16T09:14:49.384Z,2.40
2022-08-16T09:17:45.295Z,2.35
2022-08-16T09:20:08.035Z,2.38
2022-08-16T09:22:35.189Z,2.35
2022-08-16T09:25:09.928Z,2.60
2022-08-16T09:27:57.084Z,2.40
2022-08-16T09:30:33.374Z,2.10
2022-08-16T09:33:02.598Z,2.40
2022-08-16T09:35:30.780Z,2.10
2022-08-16T09:38:00.445Z,2.35
2022-08-16T09:40:32.369Z,2.17
2022-08-16T09:43:37.803Z,2.60
2022-08-16T09:46:00.039Z,2.28
2022-08-16T09:48:36.756Z,2.70
2022-08-16T09:51:12.393Z,2.75
2022-08-16T09:53:39.701Z,2.47
2022-08-16T09:56:20.116Z,2.45
2022-08-16T09:59:05.544Z,2.28
2022-08-16T10:01:36.346Z,2.95
2022-08-16T10:04:13.009Z,2.38
2022-08-16T10:06:56.629Z,3.20
2022-08-16T10:09:25.492Z,2.60
2022-08-16T10:12:31.080Z,2.40
2022-08-16T10:14:57.721Z,2.78
2022-08-16T10:17:25.102Z,2.67
2022-08-16T10:19:53.027Z,3.03
2022-08-16T10:22:23.039Z,2.60
2022-08-16T10:24:56.019Z,2.50
2022-08-16T10:27:29.987Z,2.55
2022-08-16T10:30:25.287Z,2.80
2022-08-16T10:32:55.238Z,2.38
2022-08-16T10:35:21.981Z,2.72
2022-08-16T10:37:52.448Z,2.90
2022-08-16T10:40:29.058Z,2.83
2022-08-16T10:43:01.844Z,2.50
2022-08-16T10:45:36.939Z,2.55
2022-08-16T10:48:27.099Z,3.35
2022-08-16T10:50:53.548Z,2.90
2022-08-16T10:53:20.077Z,3.05
2022-08-16T10:55:48.357Z,2.85
2022-08-16T10:58:34.368Z,2.92
2022-08-16T11:03:54.123Z,2.95
2022-08-16T11:06:27.818Z,3.13
2022-08-16T11:14:29.230Z,3.13
2022-08-16T11:17:10.986Z,3.15
2022-08-16T11:22:42.046Z,3.05
2022-08-16T11:28:06.856Z,3.30
2022-08-16T11:30:38.598Z,3.15
2022-08-16T11:33:07.349Z,3.00
2022-08-16T11:38:46.759Z,2.75
2022-08-16T11:41:09.795Z,2.72
2022-08-16T11:43:39.147Z,2.60
2022-08-16T11:46:44.917Z,2.90
2022-08-16T11:48:58.215Z,3.83
2022-08-16T11:51:24.764Z,3.28
2022-08-16T11:53:51.787Z,3.08
2022-08-16T11:56:39.487Z,3.33
2022-08-16T11:59:08.810Z,3.17
2022-08-16T12:01:55.111Z,3.10
2022-08-16T12:04:23.405Z,2.70
2022-08-16T12:06:53.786Z,2.88
2022-08-16T12:09:21.835Z,3.17
2022-08-16T12:11:52.551Z,3.28
2022-08-16T12:14:22.896Z,2.90
2022-08-16T12:16:55.713Z,3.13
2022-08-16T12:19:35.596Z,4.20
2022-08-16T12:22:05.565Z,3.22
2022-08-16T12:24:45.320Z,3.60
2022-08-16T12:27:14.564Z,3.25
2022-08-16T12:29:42.399Z,3.03
2022-08-16T12:32:26.715Z,3.10
2022-08-16T12:34:55.732Z,3.50
2022-08-16T12:37:24.644Z,3.40
2022-08-16T12:39:55.915Z,2.83
2022-08-16T12:42:34.485Z,3.22
2022-08-16T12:45:04.939Z,3.40
2022-08-16T12:47:49.889Z,3.50
2022-08-16T12:50:18.526Z,3.13
2022-08-16T12:52:53.147Z,3.45
2022-08-16T12:57:58.124Z,3.10
2022-08-16T13:00:32.935Z,3.33
2022-08-16T13:05:28.610Z,3.40
2022-08-16T13:07:58.319Z,3.17
2022-08-16T13:10:38.076Z,3.72
2022-08-16T13:13:09.095Z,3.22
2022-08-16T13:15:50.069Z,3.65
2022-08-16T13:18:27.201Z,3.10
2022-08-16T13:21:00.479Z,3.08
2022-08-16T13:23:27.037Z,3.40
2022-08-16T13:25:55.209Z,3.05
2022-08-16T13:28:22.159Z,2.55
2022-08-16T13:30:54.394Z,3.08
2022-08-16T13:33:30.562Z,3.30
2022-08-16T13:38:35.187Z,3.00
2022-08-16T13:41:09.108Z,3.63
2022-08-16T13:43:37.956Z,3.25
2022-08-16T13:46:05.481Z,3.17
2022-08-16T13:48:43.250Z,3.10
2022-08-16T13:51:16.733Z,3.55
2022-08-16T13:53:49.648Z,3.17
2022-08-16T13:56:25.857Z,3.08
2022-08-16T13:59:02.971Z,3.08
2022-08-16T14:01:29.648Z,3.50
2022-08-16T14:03:57.176Z,3.30
2022-08-16T14:06:25.360Z,3.00
2022-08-16T14:08:59.253Z,3.00
2022-08-16T14:11:34.468Z,3.47
2022-08-16T14:14:01.851Z,3.53
2022-08-16T14:16:33.924Z,3.08
2022-08-16T14:19:06.832Z,3.63
2022-08-16T14:21:35.288Z,3.22
2022-08-16T14:24:03.213Z,2.92
2022-08-16T14:26:41.069Z,3.67
2022-08-16T14:29:11.295Z,3.60
2022-08-16T14:31:39.735Z,3.15
2022-08-16T14:34:07.726Z,4.03
2022-08-16T14:36:38.164Z,3.55
2022-08-16T14:39:09.188Z,3.58
2022-08-16T14:41:36.620Z,3.40
2022-08-16T14:44:06.777Z,3.42
2022-08-16T14:46:33.425Z,2.90
2022-08-16T14:49:01.644Z,3.33
2022-08-16T14:51:28.915Z,3.78
2022-08-16T14:53:56.845Z,4.85
2022-08-16T14:56:38.751Z,3.15
2022-08-16T14:59:10.874Z,3.40
2022-08-16T15:01:58.921Z,3.50
2022-08-16T15:04:32.324Z,3.35
2022-08-16T15:07:06.806Z,3.20
2022-08-16T15:09:44.354Z,3.53
2022-08-16T15:12:30.864Z,3.35
2022-08-16T15:14:58.324Z,3.25
2022-08-16T15:17:27.509Z,3.47
2022-08-16T15:20:01.673Z,3.78
2022-08-16T15:22:31.357Z,3.55
2022-08-16T15:25:01.954Z,3.60
2022-08-16T15:27:33.625Z,4.18
2022-08-16T15:30:58.410Z,3.45
2022-08-16T15:33:00.199Z,3.25
2022-08-16T15:35:27.163Z,3.55
2022-08-16T15:37:56.630Z,3.72
2022-08-16T15:40:32.119Z,3.25
2022-08-16T15:43:03.882Z,3.17
2022-08-16T15:45:55.608Z,3.58
2022-08-16T15:48:28.582Z,3.45
2022-08-16T15:50:59.113Z,4.50
2022-08-16T15:53:30.701Z,4.72
2022-08-16T15:55:59.214Z,3.78
2022-08-16T15:58:35.250Z,3.60
2022-08-16T16:01:05.768Z,3.85
2022-08-16T16:03:34.622Z,3.78
2022-08-16T16:06:03.932Z,3.33
2022-08-16T16:08:32.156Z,3.78
2022-08-16T16:11:03.329Z,3.33
2022-08-16T16:13:31.402Z,3.92
2022-08-16T16:16:02.815Z,4.20
2022-08-16T16:18:31.601Z,3.67
2022-08-16T16:21:08.382Z,3.85
2022-08-16T16:23:54.877Z,3.47
2022-08-16T16:26:26.722Z,4.18
2022-08-16T16:29:08.532Z,4.22
2022-08-16T16:31:41.754Z,3.85
2022-08-16T16:34:10.923Z,3.45
2022-08-16T16:36:39.777Z,3.47
2022-08-16T16:39:10.908Z,3.40
2022-08-16T16:41:39.550Z,3.80
2022-08-16T16:44:09.106Z,3.90
2022-08-16T16:46:43.019Z,3.47
2022-08-16T16:49:14.179Z,3.85
2022-08-16T16:51:47.031Z,3.58
2022-08-16T16:54:27.530Z,3.30
2022-08-16T16:56:56.557Z,4.00
2022-08-16T16:59:25.550Z,3.78
2022-08-16T17:01:59.737Z,3.53
2022-08-16T17:04:42.226Z,4.22
2022-08-16T17:07:10.552Z,3.65
2022-08-16T17:09:40.326Z,3.35
2022-08-16T17:12:09.654Z,3.90
2022-08-16T17:14:38.518Z,3.90
2022-08-16T17:17:11.655Z,3.65
2022-08-16T17:19:40.814Z,4.68
2022-08-16T17:22:19.900Z,3.83
2022-08-16T17:24:52.810Z,3.80
2022-08-16T17:27:33.214Z,3.88
2022-08-16T17:30:14.879Z,4.03
2022-08-16T17:32:48.722Z,3.90
2022-08-16T17:35:21.637Z,4.00
2022-08-16T17:37:52.138Z,3.67
2022-08-16T17:40:47.536Z,4.00
2022-08-16T17:43:18.571Z,3.65
2022-08-16T17:45:46.370Z,3.78
2022-08-16T17:48:13.133Z,3.70
2022-08-16T17:50:40.941Z,4.32
2022-08-16T17:53:08.396Z,4.82
2022-08-16T17:55:38.618Z,4.07
2022-08-16T17:58:20.961Z,5.25
2022-08-16T18:00:52.423Z,6.38
2022-08-16T18:04:07.803Z,4.75
2022-08-16T18:06:13.159Z,5.32
2022-08-16T18:08:40.286Z,8.02
2022-08-16T18:11:10.179Z,6.97
2022-08-16T18:13:42.905Z,8.85
2022-08-16T18:16:10.360Z,5.47
2022-08-16T18:18:37.341Z,5.72
2022-08-16T18:21:22.890Z,3.58
2022-08-16T18:26:16.081Z,4.78
2022-08-16T18:28:42.852Z,4.70
2022-08-16T18:31:09.453Z,4.57
2022-08-16T18:33:43.542Z,5.65
2022-08-16T18:36:20.838Z,7.88
2022-08-16T18:38:49.390Z,8.05
2022-08-16T18:41:16.609Z,7.65
2022-08-16T18:43:59.169Z,4.53
2022-08-16T18:46:31.001Z,5.55
2022-08-16T18:48:57.537Z,3.58
2022-08-16T18:51:25.339Z,4.18
2022-08-16T18:53:53.126Z,7.05
2022-08-16T18:56:19.789Z,7.90
2022-08-16T18:58:46.468Z,4.68
2022-08-16T19:01:13.677Z,10.88
2022-08-16T19:03:40.377Z,6.53
2022-08-16T19:06:13.644Z,5.63
2022-08-16T19:08:45.555Z,15.50
2022-08-16T19:11:23.333Z,29.75
2022-08-16T19:13:50.166Z,31.48
2022-08-16T19:16:16.817Z,9.85
2022-08-16T19:18:48.750Z,4.57
2022-08-16T19:21:16.132Z,4.30
2022-08-16T19:23:44.071Z,8.32
2022-08-16T19:26:25.625Z,26.88
2022-08-16T19:28:58.873Z,27.83
2022-08-16T19:31:30.532Z,5.15
2022-08-16T19:33:58.047Z,20.27
2022-08-16T19:36:36.390Z,13.27
2022-08-16T19:39:11.916Z,45.75
2022-08-16T19:44:07.278Z,3.85
2022-08-16T19:46:34.884Z,37.13
2022-08-16T19:49:01.657Z,11.52
2022-08-16T19:51:28.522Z,22.35
2022-08-16T19:53:55.092Z,4.63
2022-08-16T19:56:25.730Z,24.38
2022-08-16T19:59:17.414Z,4.38
2022-08-16T20:01:42.322Z,39.97
2022-08-16T20:04:12.004Z,12.57
2022-08-16T20:06:39.589Z,46.92
2022-08-16T20:09:10.394Z,25.17
2022-08-16T20:11:41.875Z,14.10
2022-08-16T20:14:08.418Z,21.70
2022-08-16T20:16:35.734Z,33.72
2022-08-16T20:19:04.439Z,26.02
2022-08-16T20:21:31.362Z,27.38
2022-08-16T20:24:22.755Z,31.60
2022-08-16T20:26:45.675Z,25.75
2022-08-16T20:29:12.257Z,41.13
2022-08-16T20:31:39.265Z,19.35
2022-08-16T20:34:06.121Z,11.48
2022-08-16T20:36:32.713Z,8.65
2022-08-16T20:39:00.241Z,4.25
2022-08-16T20:41:27.270Z,4.35
2022-08-16T20:43:54.964Z,3.78
2022-08-16T20:46:22.446Z,4.05
2022-08-16T20:48:49.612Z,4.32
2022-08-16T20:51:17.134Z,4.20
2022-08-16T20:53:44.306Z,3.63
2022-08-16T20:56:11.937Z,4.10
2022-08-16T20:58:39.255Z,4.35
2022-08-16T21:01:07.116Z,3.97
2022-08-16T21:03:34.172Z,4.28
2022-08-16T21:06:05.337Z,4.38
2022-08-16T21:08:53.026Z,4.38
2022-08-16T21:11:21.559Z,4.10
2022-08-16T21:13:48.273Z,4.20
2022-08-16T21:16:16.908Z,4.10
2022-08-16T21:18:43.484Z,4.25
2022-08-16T21:21:12.033Z,4.70
2022-08-16T21:23:38.853Z,4.45
2022-08-16T21:26:05.840Z,4.55
2022-08-16T21:28:41.960Z,4.00
2022-08-16T21:31:15.219Z,3.72
2022-08-16T21:33:43.158Z,4.30
2022-08-16T21:36:10.398Z,3.72
2022-08-16T21:38:37.103Z,4.13
2022-08-16T21:41:05.462Z,4.40
2022-08-16T21:43:33.349Z,3.80
2022-08-16T21:46:02.451Z,3.90
2022-08-16T21:48:34.724Z,3.78
2022-08-16T21:51:11.215Z,4.88
2022-08-16T21:53:38.032Z,4.07
2022-08-16T21:56:06.867Z,4.00
2022-08-16T21:58:36.789Z,3.72
2022-08-16T22:01:03.914Z,3.78
2022-08-16T22:03:32.961Z,4.35
2022-08-16T22:06:13.125Z,4.20
2022-08-16T22:08:50.297Z,4.15
2022-08-16T22:11:19.705Z,4.70
2022-08-16T22:13:58.137Z,4.18
2022-08-16T22:16:32.676Z,3.65
2022-08-16T22:19:00.511Z,4.43
2022-08-16T22:21:27.411Z,4.75
2022-08-16T22:23:57.133Z,4.93
2022-08-16T22:26:29.752Z,4.07
2022-08-16T22:28:57.786Z,4.75
2022-08-16T22:31:25.303Z,4.97
2022-08-16T22:33:52.022Z,5.32
2022-08-16T22:36:18.630Z,5.30
2022-08-16T22:38:53.724Z,6.15
2022-08-16T22:41:22.242Z,5.00
2022-08-16T22:43:48.873Z,7.03
2022-08-16T22:46:15.948Z,6.68
2022-08-16T22:48:43.115Z,6.32
2022-08-16T22:51:10.089Z,5.22
2022-08-16T22:53:37.345Z,5.75
2022-08-16T22:56:04.759Z,6.45
2022-08-16T22:58:36.262Z,5.97
2022-08-16T23:01:06.438Z,5.63
2022-08-16T23:03:33.443Z,4.85
2022-08-16T23:06:00.747Z,6.07
2022-08-16T23:08:38.128Z,5.97
2022-08-16T23:11:20.818Z,6.20
2022-08-16T23:13:56.989Z,5.28
2022-08-16T23:16:32.998Z,5.38
2022-08-16T23:19:08.267Z,6.10
2022-08-16T23:21:37.110Z,5.37
2022-08-16T23:24:04.343Z,5.70
2022-08-16T23:26:36.480Z,5.38
2022-08-16T23:29:23.556Z,4.97
2022-08-16T23:31:54.735Z,5.90
2022-08-16T23:34:22.139Z,6.43
2022-08-16T23:36:49.557Z,6.18
2022-08-16T23:39:16.329Z,5.90
2022-08-16T23:41:43.789Z,6.65
2022-08-16T23:44:56.477Z,5.90
2022-08-16T23:46:57.231Z,5.93
2022-08-16T23:49:59.293Z,6.03
2022-08-16T23:52:10.724Z,5.65
2022-08-16T23:54:37.478Z,5.78
2022-08-16T23:57:04.433Z,5.47
2022-08-16T23:59:52.611Z,5.80
